Time;durP1;ratioP1;P1;durP2;ratioP2;P2;SDS_P1;SDS_P2;PMS_P1;PMS_P2;Temp;Humidity;BMP_temperature;BMP_pressure;BME280_temperature;BME280_humidity;BME280_pressure;Samples;Min_cycle;Max_cycle;Signal;HPM_P1;HPM_P2
2022/08/31 00:05:37;;;;;;;;;;;20.10;57.00;;;;;;5126743;27;19931;-64
2022/08/31 00:08:04;;;;;;;;;;;20.10;57.00;;;;;;5129210;27;20356;-64
2022/08/31 00:10:31;;;;;;;;;;;20.10;57.00;;;;;;5126878;27;19923;-64
2022/08/31 00:13:00;;;;;;;;;;;20.10;57.10;;;;;;5131409;27;19964;-64
2022/08/31 00:15:29;;;;;;;;;;;20.10;57.10;;;;;;5132494;27;20026;-69
2022/08/31 00:17:56;;;;;;;;;;;20.10;57.10;;;;;;5133338;27;19919;-64
2022/08/31 00:20:24;;;;;;;;;;;20.10;57.10;;;;;;5123216;27;19923;-64
2022/08/31 00:22:50;;;;;;;;;;;20.10;57.20;;;;;;5133362;27;20429;-64
2022/08/31 00:25:17;;;;;;;;;;;20.10;57.10;;;;;;5128221;27;19929;-64
2022/08/31 00:27:44;;;;;;;;;;;20.10;57.10;;;;;;5126224;27;20039;-63
2022/08/31 00:30:13;;;;;;;;;;;20.10;56.90;;;;;;5120468;27;19931;-63
2022/08/31 00:32:39;;;;;;;;;;;20.10;57.10;;;;;;5121606;27;20308;-65
2022/08/31 00:35:07;;;;;;;;;;;20.10;57.20;;;;;;5127665;27;19976;-64
2022/08/31 00:37:33;;;;;;;;;;;20.10;57.30;;;;;;5124220;27;19934;-64
2022/08/31 00:40:01;;;;;;;;;;;20.10;57.30;;;;;;5124509;27;20014;-65
2022/08/31 00:42:28;;;;;;;;;;;20.10;57.20;;;;;;5129913;27;19923;-64
2022/08/31 00:44:54;;;;;;;;;;;20.10;57.30;;;;;;5132811;27;19972;-65
2022/08/31 00:47:23;;;;;;;;;;;20.00;57.20;;;;;;5127624;27;19919;-65
2022/08/31 00:49:50;;;;;;;;;;;20.10;57.20;;;;;;5128423;27;19931;-64
2022/08/31 00:52:20;;;;;;;;;;;20.10;57.30;;;;;;5126331;27;19942;-63
2022/08/31 00:54:49;;;;;;;;;;;20.10;57.60;;;;;;5129935;27;20590;-64
2022/08/31 00:57:16;;;;;;;;;;;20.10;58.00;;;;;;5127244;27;19926;-65
2022/08/31 00:59:44;;;;;;;;;;;20.00;58.10;;;;;;5132618;27;19919;-61
2022/08/31 01:02:11;;;;;;;;;;;19.90;58.30;;;;;;5125995;27;19923;-65
2022/08/31 01:04:39;;;;;;;;;;;19.90;58.40;;;;;;5124994;27;19926;-65
2022/08/31 01:07:06;;;;;;;;;;;19.90;58.40;;;;;;5127886;27;19919;-63
2022/08/31 01:09:36;;;;;;;;;;;19.90;58.30;;;;;;5129305;27;19919;-64
2022/08/31 01:12:03;;;;;;;;;;;19.90;58.30;;;;;;5130897;27;19954;-63
2022/08/31 01:14:30;;;;;;;;;;;19.90;58.30;;;;;;5121171;27;19927;-64
2022/08/31 01:16:57;;;;;;;;;;;19.90;58.30;;;;;;5126599;27;20406;-62
2022/08/31 01:19:28;;;;;;;;;;;19.80;58.40;;;;;;5126777;27;19923;-62
2022/08/31 01:21:59;;;;;;;;;;;19.80;58.50;;;;;;5128915;27;20380;-63
2022/08/31 01:24:28;;;;;;;;;;;19.80;58.40;;;;;;5129994;27;19976;-63
2022/08/31 01:26:57;;;;;;;;;;;19.80;58.40;;;;;;5133693;27;19921;-62
2022/08/31 01:29:24;;;;;;;;;;;19.70;58.50;;;;;;5132438;27;19923;-63
2022/08/31 01:31:51;;;;;;;;;;;19.80;58.60;;;;;;5123681;27;19919;-63
2022/08/31 01:34:17;;;;;;;;;;;19.70;58.60;;;;;;5121335;27;19923;-64
2022/08/31 01:36:44;;;;;;;;;;;19.70;58.70;;;;;;5126028;27;20375;-63
2022/08/31 01:39:11;;;;;;;;;;;19.70;58.90;;;;;;5124852;27;20368;-64
2022/08/31 01:41:42;;;;;;;;;;;19.70;59.00;;;;;;5131702;27;19919;-62
2022/08/31 01:44:11;;;;;;;;;;;19.70;58.80;;;;;;5123957;27;19933;-63
2022/08/31 01:46:39;;;;;;;;;;;19.70;58.90;;;;;;5125099;27;19920;-63
2022/08/31 01:49:05;;;;;;;;;;;19.70;59.20;;;;;;5126593;27;19977;-64
2022/08/31 01:51:32;;;;;;;;;;;19.60;59.30;;;;;;5127397;27;19969;-64
2022/08/31 01:53:59;;;;;;;;;;;19.70;59.40;;;;;;5124521;27;20035;-63
2022/08/31 01:56:27;;;;;;;;;;;19.60;59.40;;;;;;5122853;27;19920;-63
2022/08/31 01:58:57;;;;;;;;;;;19.70;59.40;;;;;;5126955;27;19924;-63
2022/08/31 02:01:44;;;;;;;;;;;19.70;59.50;;;;;;5126869;27;19927;-63
2022/08/31 02:04:12;;;;;;;;;;;19.60;59.70;;;;;;5119667;27;20030;-63
2022/08/31 02:06:41;;;;;;;;;;;19.60;59.80;;;;;;5129430;27;19926;-63
2022/08/31 02:09:08;;;;;;;;;;;19.60;60.00;;;;;;5131226;27;20053;-63
2022/08/31 02:11:36;;;;;;;;;;;19.60;59.90;;;;;;5132565;27;19929;-63
2022/08/31 02:14:05;;;;;;;;;;;19.60;60.00;;;;;;5127632;27;19968;-63
2022/08/31 02:16:32;;;;;;;;;;;19.60;60.20;;;;;;5131363;27;19930;-63
2022/08/31 02:19:00;;;;;;;;;;;19.60;60.40;;;;;;5124368;27;19964;-63
2022/08/31 02:21:26;;;;;;;;;;;19.60;60.50;;;;;;5125321;27;20011;-62
2022/08/31 02:23:53;;;;;;;;;;;19.60;60.40;;;;;;5122585;27;20708;-63
2022/08/31 02:26:20;;;;;;;;;;;19.60;60.50;;;;;;5127113;27;19927;-63
2022/08/31 02:28:48;;;;;;;;;;;19.50;60.60;;;;;;5122871;27;19923;-63
2022/08/31 02:31:16;;;;;;;;;;;19.50;60.80;;;;;;5143056;27;19919;-62
2022/08/31 02:33:51;;;;;;;;;;;19.50;60.90;;;;;;5122561;27;19923;-63
2022/08/31 02:36:20;;;;;;;;;;;19.50;60.90;;;;;;5126956;27;20008;-62
2022/08/31 02:38:47;;;;;;;;;;;19.50;61.00;;;;;;5141098;27;19919;-63
2022/08/31 02:41:16;;;;;;;;;;;19.50;61.10;;;;;;5113808;27;20391;-63
2022/08/31 02:43:43;;;;;;;;;;;19.50;61.10;;;;;;5121812;27;20299;-62
2022/08/31 02:46:10;;;;;;;;;;;19.50;61.20;;;;;;5109685;27;19955;-64
2022/08/31 02:48:44;;;;;;;;;;;19.50;61.20;;;;;;5124845;27;21828;-63
2022/08/31 02:51:16;;;;;;;;;;;19.50;61.20;;;;;;5130510;27;20357;-63
2022/08/31 02:53:43;;;;;;;;;;;19.50;61.10;;;;;;5130443;27;20022;-62
2022/08/31 02:56:13;;;;;;;;;;;19.50;61.20;;;;;;5121421;27;19938;-63
2022/08/31 02:58:40;;;;;;;;;;;19.50;61.40;;;;;;5126538;27;19919;-63
2022/08/31 03:01:07;;;;;;;;;;;19.40;61.50;;;;;;5124045;27;19920;-63
2022/08/31 03:03:34;;;;;;;;;;;19.40;61.70;;;;;;5130624;27;19919;-63
2022/08/31 03:06:02;;;;;;;;;;;19.50;61.60;;;;;;5125825;27;19923;-64
2022/08/31 03:08:29;;;;;;;;;;;19.50;61.60;;;;;;5129623;28;19930;-63
2022/08/31 03:10:56;;;;;;;;;;;19.50;61.80;;;;;;5125717;27;19926;-63
2022/08/31 03:13:23;;;;;;;;;;;19.40;62.00;;;;;;5124634;28;19919;-63
2022/08/31 03:15:50;;;;;;;;;;;19.40;62.00;;;;;;5121405;27;19933;-62
2022/08/31 03:18:17;;;;;;;;;;;19.40;62.00;;;;;;5118290;27;19923;-63
2022/08/31 03:20:44;;;;;;;;;;;19.40;62.00;;;;;;5124893;27;19930;-63
2022/08/31 03:23:14;;;;;;;;;;;19.40;62.10;;;;;;5126253;27;20394;-62
2022/08/31 03:25:41;;;;;;;;;;;19.40;62.30;;;;;;5125685;27;19929;-63
2022/08/31 03:28:08;;;;;;;;;;;19.40;62.30;;;;;;5123847;27;19919;-64
2022/08/31 03:30:38;;;;;;;;;;;19.40;62.30;;;;;;5129232;28;19934;-64
2022/08/31 03:33:10;;;;;;;;;;;19.40;62.50;;;;;;5117895;27;19919;-63
2022/08/31 03:35:37;;;;;;;;;;;19.50;62.40;;;;;;5124197;27;19926;-63
2022/08/31 03:38:04;;;;;;;;;;;19.40;62.50;;;;;;5135123;27;20018;-64
2022/08/31 03:40:32;;;;;;;;;;;19.40;62.50;;;;;;5128721;27;20031;-63
2022/08/31 03:42:59;;;;;;;;;;;19.40;62.40;;;;;;5133079;27;20391;-63
2022/08/31 03:45:30;;;;;;;;;;;19.40;62.60;;;;;;5133755;27;19919;-64
2022/08/31 03:47:58;;;;;;;;;;;19.40;62.40;;;;;;5129844;27;20400;-63
2022/08/31 03:50:25;;;;;;;;;;;19.50;62.60;;;;;;5133774;27;19923;-64
2022/08/31 03:53:08;;;;;;;;;;;19.50;62.60;;;;;;5131369;27;20369;-64
2022/08/31 03:55:37;;;;;;;;;;;19.50;62.80;;;;;;5127562;27;19920;-63
2022/08/31 03:58:05;;;;;;;;;;;19.50;62.90;;;;;;5123371;27;20027;-62
2022/08/31 04:00:33;;;;;;;;;;;19.50;62.80;;;;;;5127026;27;19920;-63
2022/08/31 04:03:04;;;;;;;;;;;19.50;62.90;;;;;;5129289;27;20360;-62
2022/08/31 04:05:32;;;;;;;;;;;19.40;62.80;;;;;;5127304;27;19923;-63
2022/08/31 04:08:01;;;;;;;;;;;19.40;63.00;;;;;;5123563;27;19949;-64
2022/08/31 04:10:49;;;;;;;;;;;19.40;63.00;;;;;;5129954;27;19920;-63
2022/08/31 04:13:35;;;;;;;;;;;19.50;63.00;;;;;;5130453;27;19943;-62
2022/08/31 04:16:21;;;;;;;;;;;19.40;63.00;;;;;;5128138;27;20053;-63
2022/08/31 04:19:07;;;;;;;;;;;19.40;63.40;;;;;;5124878;27;19927;-63
2022/08/31 04:21:39;;;;;;;;;;;19.40;63.50;;;;;;5121888;27;19934;-64
2022/08/31 04:24:06;;;;;;;;;;;19.40;63.50;;;;;;5131434;27;20013;-63
2022/08/31 04:26:36;;;;;;;;;;;19.40;63.40;;;;;;5129878;27;19919;-64
2022/08/31 04:29:03;;;;;;;;;;;19.40;63.40;;;;;;5132322;27;19980;-64
2022/08/31 04:31:30;;;;;;;;;;;19.40;63.50;;;;;;5131069;27;19927;-64
2022/08/31 04:33:59;;;;;;;;;;;19.40;63.50;;;;;;5124794;27;19923;-63
2022/08/31 04:36:29;;;;;;;;;;;19.40;63.60;;;;;;5120939;27;19991;-63
2022/08/31 04:38:58;;;;;;;;;;;19.40;63.60;;;;;;5134192;27;20468;-65
2022/08/31 04:41:26;;;;;;;;;;;19.40;63.60;;;;;;5126774;27;20018;-63
2022/08/31 04:43:56;;;;;;;;;;;19.40;63.60;;;;;;5129691;27;19919;-64
2022/08/31 04:46:24;;;;;;;;;;;19.50;63.50;;;;;;5127228;27;19965;-63
2022/08/31 04:48:51;;;;;;;;;;;19.50;63.70;;;;;;5131310;27;20407;-64
2022/08/31 04:51:19;;;;;;;;;;;19.50;63.80;;;;;;5133016;27;19957;-64
2022/08/31 04:53:46;;;;;;;;;;;19.40;64.00;;;;;;5128168;27;19942;-63
2022/08/31 04:56:14;;;;;;;;;;;19.40;64.30;;;;;;5128670;27;19972;-63
2022/08/31 04:58:42;;;;;;;;;;;19.40;64.20;;;;;;5126771;27;20412;-63
2022/08/31 05:01:12;;;;;;;;;;;19.40;64.20;;;;;;5126886;27;20338;-63
2022/08/31 05:04:12;;;;;;;;;;;19.40;64.30;;;;;;5105035;27;19927;-63
2022/08/31 05:06:39;;;;;;;;;;;19.40;64.30;;;;;;5128448;27;20010;-62
2022/08/31 05:09:07;;;;;;;;;;;19.50;64.20;;;;;;5129125;27;19926;-64
2022/08/31 05:11:35;;;;;;;;;;;19.50;64.10;;;;;;5126633;27;19919;-64
2022/08/31 05:14:04;;;;;;;;;;;19.50;63.90;;;;;;5128972;27;19923;-63
2022/08/31 05:16:33;;;;;;;;;;;19.50;64.20;;;;;;5132817;27;20006;-62
2022/08/31 05:19:00;;;;;;;;;;;19.50;64.20;;;;;;5127355;27;19931;-63
2022/08/31 05:21:28;;;;;;;;;;;19.50;64.30;;;;;;5124992;27;19923;-63
2022/08/31 05:23:56;;;;;;;;;;;19.50;64.20;;;;;;5125937;27;19919;-63
2022/08/31 05:26:27;;;;;;;;;;;19.50;64.30;;;;;;5122451;27;19920;-62
2022/08/31 05:28:54;;;;;;;;;;;19.50;64.50;;;;;;5128470;27;20399;-64
2022/08/31 05:31:22;;;;;;;;;;;19.40;64.60;;;;;;5128814;27;19966;-63
2022/08/31 05:33:50;;;;;;;;;;;19.50;64.60;;;;;;5117985;27;19974;-63
2022/08/31 05:36:22;;;;;;;;;;;19.50;64.50;;;;;;5124596;27;19933;-63
2022/08/31 05:38:49;;;;;;;;;;;19.50;64.60;;;;;;5128997;27;19976;-64
2022/08/31 05:41:16;;;;;;;;;;;19.50;64.50;;;;;;5127443;27;19923;-64
2022/08/31 05:43:43;;;;;;;;;;;19.50;64.70;;;;;;5131873;27;20417;-63
2022/08/31 05:46:11;;;;;;;;;;;19.50;64.70;;;;;;5128694;27;19923;-64
2022/08/31 05:48:38;;;;;;;;;;;19.50;64.70;;;;;;5137438;27;19927;-62
2022/08/31 05:51:11;;;;;;;;;;;19.50;64.70;;;;;;5131507;27;19958;-63
2022/08/31 05:53:39;;;;;;;;;;;19.50;64.90;;;;;;5121734;27;20436;-63
2022/08/31 05:56:09;;;;;;;;;;;19.50;64.90;;;;;;5123919;27;19926;-63
2022/08/31 05:58:36;;;;;;;;;;;19.50;64.80;;;;;;5129737;27;19972;-63
2022/08/31 06:01:04;;;;;;;;;;;19.60;65.00;;;;;;5118079;27;19966;-63
2022/08/31 06:04:01;;;;;;;;;;;19.60;65.20;;;;;;5127877;27;20372;-63
2022/08/31 06:06:29;;;;;;;;;;;19.50;65.20;;;;;;5124840;27;19926;-64
2022/08/31 06:08:56;;;;;;;;;;;19.60;65.10;;;;;;5133383;27;19923;-63
2022/08/31 06:11:27;;;;;;;;;;;19.60;64.90;;;;;;5127842;27;19927;-63
2022/08/31 06:13:55;;;;;;;;;;;19.60;64.90;;;;;;5140606;27;19920;-64
2022/08/31 06:16:22;;;;;;;;;;;19.60;64.90;;;;;;5123865;27;19927;-63
2022/08/31 06:18:49;;;;;;;;;;;19.60;64.80;;;;;;5121507;27;19934;-63
2022/08/31 06:21:17;;;;;;;;;;;19.60;65.00;;;;;;5123646;27;19927;-64
2022/08/31 06:23:45;;;;;;;;;;;19.60;64.90;;;;;;5129356;27;20010;-64
2022/08/31 06:26:14;;;;;;;;;;;19.70;64.90;;;;;;5119381;27;20366;-64
2022/08/31 06:28:42;;;;;;;;;;;19.70;64.30;;;;;;5128431;27;19927;-64
2022/08/31 06:31:14;;;;;;;;;;;19.70;64.50;;;;;;5127860;27;20356;-64
2022/08/31 06:33:41;;;;;;;;;;;19.70;64.60;;;;;;5117116;27;19923;-64
2022/08/31 06:36:17;;;;;;;;;;;19.70;64.40;;;;;;5125968;27;19927;-64
2022/08/31 06:39:06;;;;;;;;;;;19.70;64.80;;;;;;5121785;27;19964;-62
2022/08/31 06:41:38;;;;;;;;;;;19.70;64.70;;;;;;5129201;27;20014;-64
2022/08/31 06:44:25;;;;;;;;;;;19.70;64.60;;;;;;5123977;27;19923;-63
2022/08/31 06:47:05;;;;;;;;;;;19.80;64.40;;;;;;5120559;27;19938;-63
2022/08/31 06:49:35;;;;;;;;;;;19.80;64.30;;;;;;5128469;27;19920;-63
2022/08/31 06:52:02;;;;;;;;;;;19.80;64.30;;;;;;5133951;27;19930;-63
2022/08/31 06:54:32;;;;;;;;;;;19.80;64.10;;;;;;5125844;27;19976;-63
2022/08/31 06:57:18;;;;;;;;;;;19.90;64.40;;;;;;5126260;27;19926;-63
2022/08/31 07:00:00;;;;;;;;;;;19.80;64.70;;;;;;5122310;27;19925;-64
2022/08/31 07:02:54;;;;;;;;;;;19.80;64.90;;;;;;5102835;27;20006;-63
2022/08/31 07:05:21;;;;;;;;;;;19.90;64.80;;;;;;5129098;27;20006;-63
2022/08/31 07:07:47;;;;;;;;;;;19.90;64.70;;;;;;5126988;27;20440;-63
2022/08/31 07:10:18;;;;;;;;;;;19.90;64.70;;;;;;5129528;27;19919;-65
2022/08/31 07:12:44;;;;;;;;;;;19.90;64.80;;;;;;5126744;27;20390;-63
2022/08/31 07:15:11;;;;;;;;;;;20.00;64.80;;;;;;5144496;27;20384;-64
2022/08/31 07:17:38;;;;;;;;;;;20.00;64.70;;;;;;5133061;27;19919;-64
2022/08/31 07:20:07;;;;;;;;;;;20.10;64.40;;;;;;5123661;27;19977;-62
2022/08/31 07:22:35;;;;;;;;;;;20.10;64.60;;;;;;5125333;27;19927;-64
2022/08/31 07:25:25;;;;;;;;;;;20.10;64.60;;;;;;5133756;27;20003;-64
2022/08/31 07:27:54;;;;;;;;;;;20.20;64.50;;;;;;5132201;27;20376;-63
2022/08/31 07:30:21;;;;;;;;;;;20.20;64.30;;;;;;5127471;27;19927;-64
2022/08/31 07:32:49;;;;;;;;;;;20.20;64.50;;;;;;5128233;27;20018;-64
2022/08/31 07:35:16;;;;;;;;;;;20.20;64.20;;;;;;5125961;27;19926;-64
2022/08/31 07:43:29;;;;;;;;;;;20.30;63.40;;;;;;5131991;27;19973;-65
2022/08/31 07:45:56;;;;;;;;;;;20.30;63.40;;;;;;5129447;27;20026;-64
2022/08/31 07:48:26;;;;;;;;;;;20.30;63.60;;;;;;5146972;27;20640;-65
2022/08/31 07:51:14;;;;;;;;;;;20.40;63.20;;;;;;5125216;27;19919;-64
2022/08/31 07:53:43;;;;;;;;;;;20.40;62.90;;;;;;5125288;27;20394;-66
2022/08/31 07:56:38;;;;;;;;;;;20.50;62.70;;;;;;5126646;27;19927;-65
2022/08/31 07:59:10;;;;;;;;;;;20.50;62.80;;;;;;5135570;27;19919;-65
2022/08/31 08:01:40;;;;;;;;;;;20.50;63.20;;;;;;5129995;27;19919;-64
2022/08/31 08:04:07;;;;;;;;;;;20.50;62.90;;;;;;5124999;27;19961;-65
2022/08/31 08:06:40;;;;;;;;;;;20.50;62.90;;;;;;5135993;27;20715;-65
2022/08/31 08:09:18;;;;;;;;;;;20.60;62.90;;;;;;5134158;27;20448;-65
2022/08/31 08:12:07;;;;;;;;;;;20.60;62.60;;;;;;5122340;27;19980;-64
2022/08/31 08:14:57;;;;;;;;;;;20.60;62.60;;;;;;5126888;27;20452;-65
2022/08/31 08:18:03;;;;;;;;;;;20.60;62.50;;;;;;5023270;28;19932;-63
2022/08/31 08:20:33;;;;;;;;;;;20.60;62.80;;;;;;5015342;28;19931;-63
2022/08/31 08:23:00;;;;;;;;;;;20.60;62.70;;;;;;5065724;27;19930;-64
2022/08/31 08:25:33;;;;;;;;;;;20.70;62.60;;;;;;5130676;27;20364;-65
2022/08/31 08:28:27;;;;;;;;;;;20.70;62.60;;;;;;5121476;27;20381;-65
2022/08/31 08:30:59;;;;;;;;;;;20.90;62.60;;;;;;5123389;27;20014;-65
2022/08/31 08:33:27;;;;;;;;;;;20.90;62.20;;;;;;5117839;27;20431;-65
2022/08/31 08:35:55;;;;;;;;;;;20.90;62.00;;;;;;5128865;27;19923;-64
2022/08/31 08:38:22;;;;;;;;;;;21.00;62.20;;;;;;5126202;27;20293;-65
2022/08/31 08:40:50;;;;;;;;;;;21.10;62.10;;;;;;5127129;27;19962;-65
2022/08/31 08:43:18;;;;;;;;;;;21.10;61.80;;;;;;5117721;27;20006;-65
2022/08/31 08:45:48;;;;;;;;;;;21.10;62.00;;;;;;5125318;27;19930;-65
2022/08/31 08:48:16;;;;;;;;;;;21.20;62.30;;;;;;5128341;27;19968;-65
2022/08/31 08:50:43;;;;;;;;;;;21.20;62.00;;;;;;5132737;27;20329;-65
2022/08/31 08:53:19;;;;;;;;;;;21.20;62.00;;;;;;5120033;27;19964;-63
2022/08/31 08:55:56;;;;;;;;;;;21.30;61.90;;;;;;5125448;27;19934;-64
2022/08/31 08:58:24;;;;;;;;;;;21.30;61.80;;;;;;5127598;27;19923;-64
2022/08/31 09:00:53;;;;;;;;;;;21.40;61.60;;;;;;5127297;27;19926;-64
2022/08/31 09:03:24;;;;;;;;;;;21.40;61.50;;;;;;5132055;27;19927;-64
2022/08/31 09:06:11;;;;;;;;;;;21.50;61.40;;;;;;5123381;27;19957;-65
2022/08/31 09:08:59;;;;;;;;;;;21.60;61.10;;;;;;5121714;27;19953;-65
2022/08/31 09:11:34;;;;;;;;;;;21.60;61.10;;;;;;5122174;27;19923;-65
2022/08/31 09:14:06;;;;;;;;;;;21.60;60.70;;;;;;5128902;27;19941;-65
2022/08/31 09:16:41;;;;;;;;;;;21.70;60.60;;;;;;5117726;27;20012;-63
2022/08/31 09:19:11;;;;;;;;;;;21.70;60.70;;;;;;5123352;27;19930;-67
2022/08/31 09:21:42;;;;;;;;;;;21.80;60.60;;;;;;5120433;27;19926;-65
2022/08/31 09:24:10;;;;;;;;;;;21.90;60.40;;;;;;5123461;27;19926;-65
2022/08/31 09:27:16;;;;;;;;;;;22.00;60.20;;;;;;5131808;27;20016;-65
2022/08/31 09:29:43;;;;;;;;;;;22.10;60.00;;;;;;5124717;27;20297;-65
2022/08/31 09:32:15;;;;;;;;;;;22.10;59.80;;;;;;5123935;27;20330;-65
2022/08/31 09:34:42;;;;;;;;;;;22.20;59.80;;;;;;5126628;27;20322;-65
2022/08/31 09:37:14;;;;;;;;;;;22.30;59.70;;;;;;5127074;27;19923;-65
2022/08/31 09:39:46;;;;;;;;;;;22.30;59.60;;;;;;5130302;27;19973;-64
2022/08/31 09:42:29;;;;;;;;;;;22.30;59.40;;;;;;5129319;27;20357;-65
2022/08/31 09:44:58;;;;;;;;;;;22.30;59.30;;;;;;5119305;27;20273;-65
2022/08/31 09:47:39;;;;;;;;;;;22.40;59.00;;;;;;5125497;27;19927;-66
2022/08/31 09:50:10;;;;;;;;;;;22.40;58.80;;;;;;5127673;27;20543;-66
2022/08/31 09:55:24;;;;;;;;;;;22.50;58.50;;;;;;5126300;27;20015;-65
2022/08/31 09:57:54;;;;;;;;;;;22.50;58.20;;;;;;5128304;27;19927;-65
2022/08/31 10:00:27;;;;;;;;;;;22.50;58.30;;;;;;5116358;27;19930;-65
2022/08/31 10:02:58;;;;;;;;;;;22.50;58.30;;;;;;5129428;27;19924;-65
2022/08/31 10:05:30;;;;;;;;;;;22.60;58.00;;;;;;5128548;27;20381;-66
2022/08/31 10:08:03;;;;;;;;;;;22.60;57.90;;;;;;5125167;27;20425;-66
2022/08/31 10:10:32;;;;;;;;;;;22.60;57.80;;;;;;5123101;27;19919;-65
2022/08/31 10:13:02;;;;;;;;;;;22.60;57.80;;;;;;5126662;27;19959;-65
2022/08/31 10:15:32;;;;;;;;;;;22.60;57.80;;;;;;5126888;27;19920;-64
2022/08/31 10:18:10;;;;;;;;;;;22.70;57.80;;;;;;5125281;27;19923;-65
2022/08/31 10:20:44;;;;;;;;;;;22.60;57.60;;;;;;5122148;27;19927;-66
2022/08/31 10:23:15;;;;;;;;;;;22.60;57.60;;;;;;5132898;27;19920;-66
2022/08/31 10:25:46;;;;;;;;;;;22.70;57.50;;;;;;5122396;27;20037;-67
2022/08/31 10:28:16;;;;;;;;;;;22.70;57.40;;;;;;5133204;27;20355;-65
2022/08/31 10:30:45;;;;;;;;;;;22.70;57.40;;;;;;5127085;27;20413;-65
2022/08/31 10:33:16;;;;;;;;;;;22.70;57.50;;;;;;5125757;27;19927;-64
2022/08/31 10:35:50;;;;;;;;;;;22.70;57.50;;;;;;5127972;27;20364;-64
2022/08/31 10:38:25;;;;;;;;;;;22.80;57.50;;;;;;5125483;27;19930;-65
2022/08/31 10:40:58;;;;;;;;;;;22.80;57.50;;;;;;5123309;27;19943;-66
2022/08/31 10:43:28;;;;;;;;;;;22.80;57.40;;;;;;5127144;27;20289;-64
2022/08/31 10:45:55;;;;;;;;;;;22.80;57.40;;;;;;5127988;27;19935;-65
2022/08/31 10:48:23;;;;;;;;;;;22.80;57.40;;;;;;5127344;27;19927;-65
2022/08/31 10:50:57;;;;;;;;;;;22.80;57.30;;;;;;5124503;27;20326;-66
2022/08/31 10:53:32;;;;;;;;;;;22.80;57.30;;;;;;5115943;27;19927;-65
2022/08/31 10:56:02;;;;;;;;;;;22.80;57.30;;;;;;5131814;27;19919;-64
2022/08/31 10:58:45;;;;;;;;;;;22.80;57.20;;;;;;5130805;27;20406;-65
2022/08/31 11:01:16;;;;;;;;;;;22.80;57.30;;;;;;5121806;27;19928;-64
2022/08/31 11:03:50;;;;;;;;;;;22.90;57.10;;;;;;5121804;27;19923;-66
2022/08/31 11:06:20;;;;;;;;;;;22.90;57.00;;;;;;5120993;27;19923;-65
2022/08/31 11:08:55;;;;;;;;;;;22.90;57.00;;;;;;5131017;27;19919;-66
2022/08/31 11:11:27;;;;;;;;;;;22.90;57.00;;;;;;5133511;27;20001;-65
2022/08/31 11:14:12;;;;;;;;;;;22.90;56.80;;;;;;5128441;27;19945;-66
2022/08/31 11:16:46;;;;;;;;;;;22.90;56.80;;;;;;5113259;27;19961;-65
2022/08/31 11:19:25;;;;;;;;;;;22.90;56.70;;;;;;5124187;27;19933;-65
2022/08/31 11:22:13;;;;;;;;;;;23.00;56.70;;;;;;5111906;27;19931;-66
2022/08/31 11:24:50;;;;;;;;;;;23.00;56.40;;;;;;5122569;27;19930;-66
2022/08/31 11:27:22;;;;;;;;;;;23.00;56.30;;;;;;5123606;27;20389;-66
2022/08/31 11:29:55;;;;;;;;;;;23.10;56.30;;;;;;5118276;27;19927;-65
2022/08/31 11:32:25;;;;;;;;;;;23.10;56.30;;;;;;5126957;27;21964;-65
2022/08/31 11:34:55;;;;;;;;;;;23.10;56.40;;;;;;5116978;27;19919;-65
2022/08/31 11:37:43;;;;;;;;;;;23.10;56.10;;;;;;5120692;27;19920;-65
2022/08/31 11:40:10;;;;;;;;;;;23.10;55.90;;;;;;5120232;27;20408;-65
2022/08/31 11:42:59;;;;;;;;;;;23.10;56.00;;;;;;5131030;27;19923;-64
2022/08/31 11:45:28;;;;;;;;;;;23.20;55.90;;;;;;5130028;27;20018;-65
2022/08/31 11:47:55;;;;;;;;;;;23.20;55.90;;;;;;5125701;27;20010;-66
2022/08/31 11:50:46;;;;;;;;;;;23.20;55.80;;;;;;5131975;27;20349;-66
2022/08/31 11:53:24;;;;;;;;;;;23.20;55.80;;;;;;5116754;27;19927;-65
2022/08/31 11:55:52;;;;;;;;;;;23.30;55.40;;;;;;5124857;27;20365;-65
2022/08/31 11:58:26;;;;;;;;;;;23.30;55.30;;;;;;5116686;27;19924;-65
2022/08/31 12:00:58;;;;;;;;;;;23.30;55.00;;;;;;5124033;27;20390;-66
2022/08/31 12:03:33;;;;;;;;;;;23.40;54.80;;;;;;5132768;27;20000;-66
2022/08/31 12:06:00;;;;;;;;;;;23.30;54.90;;;;;;5133694;27;19943;-67
2022/08/31 12:08:31;;;;;;;;;;;23.40;54.90;;;;;;5135575;27;19927;-65
2022/08/31 12:11:01;;;;;;;;;;;23.40;54.60;;;;;;5134163;27;19926;-65
2022/08/31 12:13:32;;;;;;;;;;;23.40;54.60;;;;;;5125187;27;20300;-65
2022/08/31 12:16:13;;;;;;;;;;;23.50;54.40;;;;;;5129321;27;19938;-66
2022/08/31 12:19:01;;;;;;;;;;;23.50;54.40;;;;;;5130740;27;20017;-65
2022/08/31 12:24:24;;;;;;;;;;;23.60;54.20;;;;;;5136041;27;20007;-66
2022/08/31 12:26:58;;;;;;;;;;;23.60;54.40;;;;;;5131359;27;20470;-65
2022/08/31 12:29:27;;;;;;;;;;;23.60;54.30;;;;;;5133465;27;19926;-64
2022/08/31 12:32:08;;;;;;;;;;;23.60;53.90;;;;;;5122662;27;19933;-65
2022/08/31 12:34:36;;;;;;;;;;;23.70;53.70;;;;;;5106065;27;19935;-66
2022/08/31 12:37:17;;;;;;;;;;;23.70;53.80;;;;;;5121951;27;19927;-66
2022/08/31 12:39:45;;;;;;;;;;;23.70;53.90;;;;;;5127839;27;20008;-64
2022/08/31 12:42:11;;;;;;;;;;;23.70;53.70;;;;;;5125320;27;19919;-65
2022/08/31 12:44:41;;;;;;;;;;;23.70;53.70;;;;;;5124243;27;19927;-64
2022/08/31 12:47:16;;;;;;;;;;;23.80;53.80;;;;;;5123124;27;19934;-65
2022/08/31 12:49:51;;;;;;;;;;;23.80;53.70;;;;;;5128980;27;19941;-64
2022/08/31 12:52:24;;;;;;;;;;;23.80;53.30;;;;;;5134664;27;20006;-64
2022/08/31 12:55:09;;;;;;;;;;;23.80;53.30;;;;;;5133269;27;20018;-65
2022/08/31 12:57:48;;;;;;;;;;;23.90;53.30;;;;;;5120343;27;20014;-65
2022/08/31 13:00:19;;;;;;;;;;;23.90;53.20;;;;;;5121599;27;19930;-64
2022/08/31 13:02:46;;;;;;;;;;;23.90;53.10;;;;;;5128537;27;19923;-65
2022/08/31 13:05:17;;;;;;;;;;;24.00;53.20;;;;;;5131115;27;19954;-65
2022/08/31 13:07:44;;;;;;;;;;;24.00;52.80;;;;;;5130048;27;19919;-64
2022/08/31 13:10:12;;;;;;;;;;;24.10;52.60;;;;;;5129602;27;19919;-66
2022/08/31 13:12:39;;;;;;;;;;;24.20;52.60;;;;;;5129460;27;19951;-66
2022/08/31 13:15:20;;;;;;;;;;;24.30;52.70;;;;;;5127527;27;20058;-66
2022/08/31 13:17:47;;;;;;;;;;;24.30;52.70;;;;;;5125247;27;19923;-65
2022/08/31 13:20:17;;;;;;;;;;;24.40;52.30;;;;;;5131414;27;19919;-65
2022/08/31 13:22:47;;;;;;;;;;;24.50;52.10;;;;;;5124196;27;20409;-65
2022/08/31 13:25:15;;;;;;;;;;;24.50;52.10;;;;;;5114353;27;19926;-66
2022/08/31 13:27:47;;;;;;;;;;;24.60;52.00;;;;;;5123050;27;19933;-65
2022/08/31 13:30:17;;;;;;;;;;;24.60;51.80;;;;;;5128456;27;19942;-65
2022/08/31 13:32:48;;;;;;;;;;;24.70;51.40;;;;;;5124120;27;19927;-67
2022/08/31 13:35:18;;;;;;;;;;;24.70;51.10;;;;;;5116520;27;19933;-65
2022/08/31 13:38:03;;;;;;;;;;;24.70;51.50;;;;;;5128740;27;19926;-64
2022/08/31 13:40:31;;;;;;;;;;;24.80;51.50;;;;;;5129974;27;19934;-64
2022/08/31 13:42:58;;;;;;;;;;;24.80;51.60;;;;;;5123213;27;19919;-64
2022/08/31 13:45:28;;;;;;;;;;;24.70;51.70;;;;;;5132945;27;19925;-65
2022/08/31 13:47:56;;;;;;;;;;;24.70;52.00;;;;;;5117954;27;19926;-63
2022/08/31 13:50:24;;;;;;;;;;;24.70;51.90;;;;;;5121788;27;19919;-65
2022/08/31 13:52:52;;;;;;;;;;;24.60;51.70;;;;;;5126572;27;19919;-65
2022/08/31 13:55:30;;;;;;;;;;;24.50;51.60;;;;;;5119781;27;19935;-64
2022/08/31 13:57:58;;;;;;;;;;;24.50;51.60;;;;;;5116936;27;19928;-65
2022/08/31 14:00:33;;;;;;;;;;;24.50;51.60;;;;;;5123649;27;19919;-64
2022/08/31 14:03:14;;;;;;;;;;;24.50;51.60;;;;;;5129144;27;19919;-64
2022/08/31 14:05:41;;;;;;;;;;;24.40;51.60;;;;;;5120889;27;20014;-64
2022/08/31 14:08:08;;;;;;;;;;;24.40;51.60;;;;;;5116855;27;19924;-64
2022/08/31 14:10:36;;;;;;;;;;;24.40;51.50;;;;;;5134525;27;19923;-65
2022/08/31 14:13:10;;;;;;;;;;;24.30;51.40;;;;;;5132016;27;20300;-65
2022/08/31 14:15:39;;;;;;;;;;;24.30;51.10;;;;;;5133376;27;19919;-64
2022/08/31 14:18:15;;;;;;;;;;;24.20;51.00;;;;;;5128096;27;20021;-64
2022/08/31 14:20:43;;;;;;;;;;;24.20;51.20;;;;;;5131665;27;19942;-64
2022/08/31 14:23:23;;;;;;;;;;;24.10;51.20;;;;;;5119548;27;20265;-64
2022/08/31 14:25:50;;;;;;;;;;;24.10;51.30;;;;;;5131599;27;19923;-66
2022/08/31 14:28:17;;;;;;;;;;;24.00;51.20;;;;;;5130595;27;19924;-65
2022/08/31 14:30:45;;;;;;;;;;;24.10;51.20;;;;;;5133067;27;19964;-64
2022/08/31 14:33:15;;;;;;;;;;;24.10;50.80;;;;;;5132279;27;20399;-64
2022/08/31 14:35:42;;;;;;;;;;;24.10;50.60;;;;;;5128940;27;20008;-65
2022/08/31 14:38:14;;;;;;;;;;;24.10;50.60;;;;;;5133589;27;19940;-65
2022/08/31 14:40:41;;;;;;;;;;;24.20;50.50;;;;;;5133001;27;19959;-64
2022/08/31 14:43:08;;;;;;;;;;;24.20;50.40;;;;;;5122853;27;19930;-64
2022/08/31 14:45:36;;;;;;;;;;;24.20;50.40;;;;;;5130525;27;19930;-64
2022/08/31 14:48:07;;;;;;;;;;;24.30;50.50;;;;;;5132270;27;19930;-65
2022/08/31 14:50:34;;;;;;;;;;;24.30;50.30;;;;;;5133524;27;19919;-63
2022/08/31 14:53:01;;;;;;;;;;;24.50;50.10;;;;;;5128965;27;19923;-64
2022/08/31 14:55:28;;;;;;;;;;;24.50;49.80;;;;;;5131487;27;20391;-64